Time;durP1;ratioP1;P1;durP2;ratioP2;P2;SDS_P1;SDS_P2;PMS_P1;PMS_P2;Temp;Humidity;BMP_temperature;BMP_pressure;BME280_temperature;BME280_humidity;BME280_pressure;Samples;Min_cycle;Max_cycle;Signal;HPM_P1;HPM_P2
2021/10/25 00:02:06;;;;;;;24.67;23.05;;;;;;;;;;5075127;28;20203;-85
2021/10/25 00:04:34;;;;;;;24.13;22.50;;;;;;;;;;5075401;28;20188;-85
2021/10/25 00:07:01;;;;;;;22.30;21.00;;;;;;;;;;5075337;28;20630;-85
2021/10/25 00:09:30;;;;;;;23.50;22.10;;;;;;;;;;5075373;28;20212;-86
2021/10/25 00:11:57;;;;;;;23.00;21.50;;;;;;;;;;5075299;28;20643;-86
2021/10/25 00:14:25;;;;;;;23.98;22.55;;;;;;;;;;5075406;28;20189;-86
2021/10/25 00:16:52;;;;;;;23.23;21.83;;;;;;;;;;5074975;28;20200;-85
2021/10/25 00:19:20;;;;;;;23.30;21.70;;;;;;;;;;5075247;28;20192;-85
2021/10/25 00:21:47;;;;;;;23.15;21.70;;;;;;;;;;5075086;28;20224;-85
2021/10/25 00:24:15;;;;;;;24.13;22.33;;;;;;;;;;5074831;28;20188;-85
2021/10/25 00:26:44;;;;;;;23.40;22.00;;;;;;;;;;5074481;28;20189;-85
2021/10/25 00:29:11;;;;;;;24.20;22.40;;;;;;;;;;5074842;28;20202;-85
2021/10/25 00:31:39;;;;;;;23.02;21.60;;;;;;;;;;5074657;28;20618;-85
2021/10/25 00:34:06;;;;;;;23.17;21.35;;;;;;;;;;5073690;28;20192;-85
2021/10/25 00:36:34;;;;;;;22.98;21.52;;;;;;;;;;5074677;28;20219;-86
2021/10/25 00:39:01;;;;;;;23.13;21.73;;;;;;;;;;5074550;28;20209;-85
2021/10/25 00:41:28;;;;;;;22.80;21.40;;;;;;;;;;5074282;28;20211;-85
2021/10/25 00:43:57;;;;;;;22.80;21.40;;;;;;;;;;5074557;28;20192;-85
2021/10/25 00:46:24;;;;;;;24.75;23.25;;;;;;;;;;5074344;28;20206;-85
2021/10/25 00:48:52;;;;;;;23.08;21.48;;;;;;;;;;5074485;28;20257;-86
2021/10/25 00:51:19;;;;;;;22.45;21.05;;;;;;;;;;5074346;28;20213;-85
2021/10/25 00:53:47;;;;;;;22.75;21.30;;;;;;;;;;5073739;28;20226;-85
2021/10/25 00:56:14;;;;;;;22.88;21.55;;;;;;;;;;5074272;28;20581;-85
2021/10/25 00:58:41;;;;;;;22.77;21.30;;;;;;;;;;5074101;28;20656;-86
2021/10/25 01:01:10;;;;;;;23.05;21.42;;;;;;;;;;5074212;28;20646;-85
2021/10/25 01:03:38;;;;;;;23.30;21.60;;;;;;;;;;5074312;28;20196;-86
2021/10/25 01:06:06;;;;;;;25.98;24.10;;;;;;;;;;5073724;28;20208;-85
2021/10/25 01:08:36;;;;;;;23.55;22.05;;;;;;;;;;5074054;28;20605;-85
2021/10/25 01:11:03;;;;;;;22.63;21.23;;;;;;;;;;5074220;28;20212;-85
2021/10/25 01:13:30;;;;;;;23.13;21.40;;;;;;;;;;5074122;28;20602;-86
2021/10/25 01:15:58;;;;;;;22.70;21.40;;;;;;;;;;5074141;28;20197;-85
2021/10/25 01:18:27;;;;;;;22.92;21.40;;;;;;;;;;5072978;28;20234;-86
2021/10/25 01:20:55;;;;;;;23.65;22.15;;;;;;;;;;5074046;28;20196;-85
2021/10/25 01:23:23;;;;;;;23.55;22.05;;;;;;;;;;5073927;28;20208;-85
2021/10/25 01:25:51;;;;;;;23.67;22.13;;;;;;;;;;5073970;28;20184;-86
2021/10/25 01:28:18;;;;;;;24.58;22.80;;;;;;;;;;5073628;28;20203;-85
2021/10/25 01:30:46;;;;;;;23.25;21.85;;;;;;;;;;5073573;28;20188;-85
2021/10/25 01:33:14;;;;;;;23.67;21.98;;;;;;;;;;5073510;28;20221;-86
2021/10/25 01:35:42;;;;;;;23.55;21.92;;;;;;;;;;5072204;28;20201;-85
2021/10/25 01:38:11;;;;;;;23.02;21.63;;;;;;;;;;5073376;28;20196;-85
2021/10/25 01:40:39;;;;;;;23.85;22.23;;;;;;;;;;5073673;28;20198;-85
2021/10/25 01:43:06;;;;;;;24.85;23.33;;;;;;;;;;5073793;28;20545;-85
2021/10/25 01:45:34;;;;;;;23.00;21.48;;;;;;;;;;5073533;28;20625;-85
2021/10/25 01:48:01;;;;;;;23.10;21.50;;;;;;;;;;5073757;28;20194;-86
2021/10/25 01:50:28;;;;;;;23.48;21.80;;;;;;;;;;5073682;28;20188;-85
2021/10/25 01:52:57;;;;;;;23.42;21.70;;;;;;;;;;5073569;28;20222;-85
2021/10/25 01:55:26;;;;;;;23.98;22.38;;;;;;;;;;5072387;28;20266;-85
2021/10/25 01:57:54;;;;;;;25.13;23.45;;;;;;;;;;5073705;28;20557;-86
2021/10/25 02:00:22;;;;;;;24.75;23.15;;;;;;;;;;5076388;28;20234;-85
2021/10/25 02:02:49;;;;;;;24.05;22.45;;;;;;;;;;5077645;28;20538;-85
2021/10/25 02:05:17;;;;;;;22.20;20.90;;;;;;;;;;5077822;28;20195;-86
2021/10/25 02:07:44;;;;;;;23.98;22.23;;;;;;;;;;5077397;28;20188;-84
2021/10/25 02:10:12;;;;;;;24.08;22.55;;;;;;;;;;5077494;28;20204;-85
2021/10/25 02:12:41;;;;;;;23.67;22.00;;;;;;;;;;5077524;28;20631;-85
2021/10/25 02:15:09;;;;;;;24.92;23.33;;;;;;;;;;5076061;28;20235;-85
2021/10/25 02:17:37;;;;;;;24.00;22.40;;;;;;;;;;5077334;28;20200;-86
2021/10/25 02:20:04;;;;;;;23.90;22.40;;;;;;;;;;5077586;28;20199;-85
2021/10/25 02:22:32;;;;;;;24.70;23.10;;;;;;;;;;5077539;28;20197;-85
2021/10/25 02:24:59;;;;;;;24.80;23.20;;;;;;;;;;5077451;28;20284;-85
2021/10/25 02:27:27;;;;;;;24.02;22.40;;;;;;;;;;5077118;28;20200;-85
2021/10/25 02:29:56;;;;;;;25.02;23.40;;;;;;;;;;5076860;28;20641;-86
2021/10/25 02:32:23;;;;;;;24.17;22.70;;;;;;;;;;5076703;28;20200;-84
2021/10/25 02:34:51;;;;;;;24.45;22.50;;;;;;;;;;5076816;28;20212;-85
2021/10/25 02:37:19;;;;;;;23.90;22.30;;;;;;;;;;5077166;28;20207;-86
2021/10/25 02:39:47;;;;;;;25.55;23.23;;;;;;;;;;5076839;28;20199;-86
2021/10/25 02:42:15;;;;;;;25.02;23.42;;;;;;;;;;5076499;28;20200;-85
2021/10/25 02:44:43;;;;;;;24.92;23.40;;;;;;;;;;5076868;28;20284;-85
2021/10/25 02:47:12;;;;;;;26.35;24.65;;;;;;;;;;5076854;28;20188;-86
2021/10/25 02:49:39;;;;;;;24.52;22.98;;;;;;;;;;5076775;28;20654;-85
2021/10/25 02:52:07;;;;;;;25.27;23.58;;;;;;;;;;5076672;28;20195;-86
2021/10/25 02:54:34;;;;;;;25.30;23.67;;;;;;;;;;5076728;28;20222;-84
2021/10/25 02:57:01;;;;;;;25.85;23.88;;;;;;;;;;5076512;28;20216;-85
2021/10/25 02:59:30;;;;;;;24.67;23.05;;;;;;;;;;5076333;28;20576;-85
2021/10/25 03:01:57;;;;;;;25.45;23.75;;;;;;;;;;5076289;28;20189;-86
2021/10/25 03:04:26;;;;;;;24.15;22.65;;;;;;;;;;5076401;28;20753;-85
2021/10/25 03:06:53;;;;;;;24.38;22.70;;;;;;;;;;5076578;28;20200;-86
2021/10/25 03:09:21;;;;;;;24.33;22.50;;;;;;;;;;5076597;28;20212;-86
2021/10/25 03:11:48;;;;;;;25.38;23.30;;;;;;;;;;5076518;28;20190;-86
2021/10/25 03:14:16;;;;;;;23.38;21.88;;;;;;;;;;5075032;28;20767;-86
2021/10/25 03:16:43;;;;;;;24.95;23.38;;;;;;;;;;5076062;28;20195;-85
2021/10/25 03:19:10;;;;;;;25.00;23.50;;;;;;;;;;5075958;28;20195;-85
2021/10/25 03:21:39;;;;;;;24.10;22.52;;;;;;;;;;5076165;28;20574;-85
2021/10/25 03:24:07;;;;;;;24.67;23.10;;;;;;;;;;5076098;28;20205;-86
2021/10/25 03:26:34;;;;;;;25.10;23.30;;;;;;;;;;5076148;28;20212;-85
2021/10/25 03:29:02;;;;;;;24.40;22.80;;;;;;;;;;5076383;28;20188;-86
2021/10/25 03:31:29;;;;;;;24.92;23.23;;;;;;;;;;5075841;28;20623;-86
2021/10/25 03:33:56;;;;;;;25.23;23.63;;;;;;;;;;5075822;28;20208;-85
2021/10/25 03:36:28;;;;;;;24.13;22.52;;;;;;;;;;5075957;28;20205;-85
2021/10/25 03:38:57;;;;;;;24.00;22.30;;;;;;;;;;5074772;28;20617;-86
2021/10/25 03:41:29;;;;;;;23.10;21.70;;;;;;;;;;5075442;28;20190;-84
2021/10/25 03:44:00;;;;;;;24.02;22.42;;;;;;;;;;5075959;28;20188;-85
2021/10/25 03:46:34;;;;;;;24.08;22.60;;;;;;;;;;5075701;28;20184;-84
2021/10/25 03:49:07;;;;;;;23.67;22.08;;;;;;;;;;5075551;28;20562;-84
2021/10/25 03:51:37;;;;;;;26.85;25.25;;;;;;;;;;5074785;28;20231;-83
2021/10/25 03:54:19;;;;;;;23.38;21.98;;;;;;;;;;5075188;28;20658;-84
2021/10/25 03:57:08;;;;;;;24.08;22.52;;;;;;;;;;5074757;28;20307;-85
2021/10/25 03:59:49;;;;;;;25.08;23.48;;;;;;;;;;5075026;28;20231;-84
2021/10/25 04:27:16;;;;;;;24.52;22.83;;;;;;;;;;5012750;28;20201;-84
2021/10/25 04:29:46;;;;;;;25.15;23.55;;;;;;;;;;5012979;28;20554;-83
2021/10/25 04:32:14;;;;;;;25.77;24.08;;;;;;;;;;5012532;28;20209;-84
2021/10/25 04:34:41;;;;;;;25.27;23.58;;;;;;;;;;5012577;28;20221;-83
2021/10/25 04:37:08;;;;;;;27.02;25.00;;;;;;;;;;5012396;28;20676;-84
2021/10/25 04:39:36;;;;;;;25.60;23.80;;;;;;;;;;5012082;28;20199;-83
2021/10/25 04:42:03;;;;;;;26.20;24.38;;;;;;;;;;5012312;28;20251;-84
2021/10/25 04:44:32;;;;;;;25.95;24.05;;;;;;;;;;5012163;28;20186;-83
2021/10/25 04:47:00;;;;;;;27.08;24.73;;;;;;;;;;5012403;28;20222;-83
2021/10/25 04:49:27;;;;;;;26.58;24.55;;;;;;;;;;5012209;28;20312;-83
2021/10/25 04:51:54;;;;;;;26.55;24.55;;;;;;;;;;5012096;28;20206;-82
2021/10/25 04:54:22;;;;;;;27.42;25.05;;;;;;;;;;5012010;28;20216;-83
2021/10/25 04:56:49;;;;;;;26.98;25.08;;;;;;;;;;5067854;28;20231;-84
2021/10/25 04:59:17;;;;;;;28.15;25.75;;;;;;;;;;5073591;28;20590;-83
2021/10/25 05:01:46;;;;;;;26.67;24.75;;;;;;;;;;5073537;28;20237;-83
2021/10/25 05:04:13;;;;;;;26.67;24.90;;;;;;;;;;5073459;28;20204;-82
2021/10/25 05:06:41;;;;;;;26.75;24.73;;;;;;;;;;5073746;28;20197;-83
2021/10/25 05:09:08;;;;;;;28.00;25.65;;;;;;;;;;5073771;28;20216;-84
2021/10/25 05:11:36;;;;;;;25.65;23.80;;;;;;;;;;5073459;28;20195;-83
2021/10/25 05:14:03;;;;;;;27.30;25.40;;;;;;;;;;5072339;28;20236;-83
2021/10/25 05:16:31;;;;;;;26.88;24.85;;;;;;;;;;5073462;28;20188;-83
2021/10/25 05:19:00;;;;;;;27.13;24.73;;;;;;;;;;5073813;28;20196;-84
2021/10/25 05:21:27;;;;;;;26.92;25.23;;;;;;;;;;5073514;28;20188;-84
2021/10/25 05:23:55;;;;;;;25.58;23.77;;;;;;;;;;5073802;28;20577;-83
2021/10/25 05:26:22;;;;;;;27.05;25.30;;;;;;;;;;5073671;28;20219;-87
2021/10/25 05:28:50;;;;;;;26.98;24.88;;;;;;;;;;5073577;28;20188;-84
2021/10/25 05:31:18;;;;;;;25.85;24.15;;;;;;;;;;5073121;28;20660;-84
2021/10/25 05:33:45;;;;;;;26.02;24.23;;;;;;;;;;5073096;28;20215;-83
2021/10/25 05:36:14;;;;;;;27.00;25.00;;;;;;;;;;5073139;28;20185;-83
2021/10/25 05:38:41;;;;;;;28.35;25.85;;;;;;;;;;5073297;28;20188;-83
2021/10/25 05:41:09;;;;;;;28.38;25.95;;;;;;;;;;5073352;28;20215;-83
2021/10/25 05:43:37;;;;;;;27.17;25.17;;;;;;;;;;5073439;28;20524;-83
2021/10/25 05:46:04;;;;;;;28.58;26.00;;;;;;;;;;5073055;28;20188;-83
2021/10/25 05:48:32;;;;;;;28.58;26.45;;;;;;;;;;5072881;28;20187;-83
2021/10/25 05:51:00;;;;;;;28.80;26.55;;;;;;;;;;5072922;28;20645;-83
2021/10/25 05:53:29;;;;;;;28.08;25.52;;;;;;;;;;5072702;28;20231;-83
2021/10/25 05:55:58;;;;;;;27.00;25.10;;;;;;;;;;5072984;28;20708;-84
2021/10/25 05:58:25;;;;;;;27.42;25.52;;;;;;;;;;5072154;28;20200;-83
2021/10/25 06:00:55;;;;;;;27.77;25.60;;;;;;;;;;5072768;28;20633;-84
2021/10/25 06:03:24;;;;;;;31.48;28.60;;;;;;;;;;5072525;28;20243;-84
2021/10/25 06:05:51;;;;;;;27.50;25.48;;;;;;;;;;5073089;28;20245;-83
2021/10/25 06:08:19;;;;;;;27.85;25.92;;;;;;;;;;5073008;28;20205;-83
2021/10/25 06:10:48;;;;;;;27.20;25.38;;;;;;;;;;5073010;28;20199;-83
2021/10/25 06:13:22;;;;;;;26.17;24.45;;;;;;;;;;5073018;28;20184;-84
2021/10/25 06:15:56;;;;;;;27.02;25.17;;;;;;;;;;5073426;28;20632;-91
2021/10/25 06:18:24;;;;;;;27.42;25.45;;;;;;;;;;5073382;28;20215;-83
2021/10/25 06:20:52;;;;;;;27.00;25.20;;;;;;;;;;5072830;28;20223;-81
2021/10/25 06:23:19;;;;;;;27.92;25.75;;;;;;;;;;5072724;28;20200;-81
2021/10/25 06:25:51;;;;;;;25.73;24.02;;;;;;;;;;5072431;28;20199;-80
2021/10/25 06:28:18;;;;;;;27.25;25.35;;;;;;;;;;5072364;28;20194;-86
2021/10/25 06:30:54;;;;;;;28.60;26.38;;;;;;;;;;5073541;28;20271;-86
2021/10/25 06:33:21;;;;;;;29.42;27.05;;;;;;;;;;5072909;28;20200;-86
2021/10/25 06:35:57;;;;;;;29.15;27.05;;;;;;;;;;5072976;28;20219;-80
2021/10/25 06:38:30;;;;;;;28.05;25.88;;;;;;;;;;5072029;28;20185;-82
2021/10/25 06:40:59;;;;;;;26.50;24.70;;;;;;;;;;5072136;28;20250;-82
2021/10/25 06:43:27;;;;;;;27.17;25.27;;;;;;;;;;5072112;28;20218;-83
2021/10/25 06:45:55;;;;;;;26.45;24.52;;;;;;;;;;5074213;28;20192;-82
2021/10/25 06:48:22;;;;;;;26.42;24.63;;;;;;;;;;5076041;28;20563;-82
2021/10/25 06:50:51;;;;;;;28.17;26.15;;;;;;;;;;5076175;28;20200;-82
2021/10/25 06:53:18;;;;;;;28.02;26.02;;;;;;;;;;5075986;28;20227;-82
2021/10/25 06:55:46;;;;;;;27.17;25.30;;;;;;;;;;5075481;28;20256;-82
2021/10/25 06:58:15;;;;;;;29.35;27.00;;;;;;;;;;5075694;28;20234;-83
2021/10/25 07:00:43;;;;;;;28.80;26.70;;;;;;;;;;5075217;28;20236;-81
2021/10/25 07:03:11;;;;;;;27.25;25.40;;;;;;;;;;5075476;28;20204;-81
2021/10/25 07:05:40;;;;;;;26.90;24.92;;;;;;;;;;5075598;28;20642;-84
2021/10/25 07:08:08;;;;;;;27.23;25.13;;;;;;;;;;5075508;28;20239;-83
2021/10/25 07:10:36;;;;;;;26.98;25.08;;;;;;;;;;5075842;28;20186;-82
2021/10/25 07:13:04;;;;;;;25.98;24.27;;;;;;;;;;5075821;28;20273;-83
2021/10/25 07:15:37;;;;;;;28.52;26.08;;;;;;;;;;5074245;28;20224;-83
2021/10/25 07:18:11;;;;;;;26.20;24.05;;;;;;;;;;5074589;28;20201;-83
2021/10/25 07:20:47;;;;;;;26.33;24.45;;;;;;;;;;5075702;28;20213;-82
2021/10/25 07:23:44;;;;;;;26.83;24.98;;;;;;;;;;5074169;28;20205;-82
2021/10/25 07:59:49;;;;;;;25.58;23.63;;;;;;;;;;5074590;28;20710;-83
2021/10/25 08:05:18;;;;;;;26.05;24.15;;;;;;;;;;5074229;28;20195;-83
2021/10/25 08:07:52;;;;;;;25.13;23.48;;;;;;;;;;5074835;28;20225;-82
2021/10/25 08:10:23;;;;;;;26.33;24.42;;;;;;;;;;5074797;28;20274;-84
2021/10/25 08:12:53;;;;;;;25.85;23.75;;;;;;;;;;5074983;28;20205;-83
2021/10/25 08:15:25;;;;;;;25.90;24.02;;;;;;;;;;5074560;28;20266;-84
2021/10/25 08:17:57;;;;;;;26.30;24.30;;;;;;;;;;5074231;28;20189;-84
2021/10/25 08:20:26;;;;;;;26.73;24.58;;;;;;;;;;5074699;28;20226;-84
2021/10/25 08:22:54;;;;;;;24.75;23.05;;;;;;;;;;5074688;28;20705;-84
2021/10/25 08:25:22;;;;;;;24.75;23.15;;;;;;;;;;5074628;28;20200;-83
2021/10/25 08:27:49;;;;;;;25.08;23.23;;;;;;;;;;5074323;28;20272;-83
2021/10/25 08:30:19;;;;;;;24.52;22.75;;;;;;;;;;5074146;28;20704;-84
2021/10/25 08:35:39;;;;;;;24.70;23.10;;;;;;;;;;5075123;28;20229;-82
2021/10/25 08:40:53;;;;;;;24.38;22.75;;;;;;;;;;5074677;28;20282;-90
2021/10/25 08:43:20;;;;;;;24.45;22.75;;;;;;;;;;5074198;28;20195;-83
2021/10/25 08:45:51;;;;;;;23.58;21.98;;;;;;;;;;5074228;28;20197;-86
2021/10/25 08:48:21;;;;;;;24.35;22.52;;;;;;;;;;5074909;28;20269;-85
2021/10/25 08:50:50;;;;;;;24.08;22.55;;;;;;;;;;5074477;28;20238;-85
2021/10/25 08:53:17;;;;;;;24.57;22.93;;;;;;;;;;5074355;28;20224;-85
2021/10/25 08:55:47;;;;;;;23.80;22.20;;;;;;;;;;5074244;28;20506;-85
2021/10/25 08:58:14;;;;;;;23.58;22.08;;;;;;;;;;5074237;28;20605;-86
2021/10/25 09:00:43;;;;;;;23.92;22.10;;;;;;;;;;5073922;28;20237;-86
2021/10/25 09:03:11;;;;;;;23.35;21.85;;;;;;;;;;5074254;28;20190;-84
2021/10/25 09:05:39;;;;;;;24.95;23.02;;;;;;;;;;5072497;28;20207;-84
2021/10/25 09:08:11;;;;;;;24.40;22.90;;;;;;;;;;5073760;28;20192;-83
2021/10/25 09:10:40;;;;;;;22.70;21.27;;;;;;;;;;5073492;28;20647;-84
2021/10/25 09:13:09;;;;;;;24.75;23.15;;;;;;;;;;5073553;28;20203;-87
2021/10/25 09:15:38;;;;;;;24.75;23.15;;;;;;;;;;5073329;28;20226;-85
2021/10/25 09:18:07;;;;;;;23.77;22.23;;;;;;;;;;5073102;28;20201;-84
2021/10/25 09:20:42;;;;;;;23.05;21.65;;;;;;;;;;5073521;28;20587;-84
2021/10/25 09:23:13;;;;;;;23.40;21.90;;;;;;;;;;5073738;28;20191;-84
2021/10/25 09:25:40;;;;;;;22.88;21.45;;;;;;;;;;5073537;28;20222;-82
2021/10/25 09:28:16;;;;;;;24.38;22.63;;;;;;;;;;5073037;28;20276;-83
2021/10/25 09:30:47;;;;;;;23.52;22.02;;;;;;;;;;5073152;28;20205;-82
2021/10/25 09:33:21;;;;;;;23.63;22.02;;;;;;;;;;5072551;28;20202;-83
2021/10/25 09:35:53;;;;;;;22.58;21.15;;;;;;;;;;5072850;28;20219;-81
2021/10/25 09:38:27;;;;;;;22.95;21.45;;;;;;;;;;5072973;28;20601;-81
2021/10/25 09:41:29;;;;;;;22.75;21.25;;;;;;;;;;5072807;28;20623;-81
2021/10/25 09:49:29;;;;;;;22.92;21.33;;;;;;;;;;5072656;28;20693;-82
2021/10/25 09:51:57;;;;;;;22.80;21.30;;;;;;;;;;5072842;28;20186;-83
2021/10/25 09:54:28;;;;;;;22.58;21.10;;;;;;;;;;5072638;28;20697;-82
2021/10/25 09:57:03;;;;;;;22.07;20.77;;;;;;;;;;5072666;28;20235;-82
2021/10/25 09:59:34;;;;;;;22.87;21.47;;;;;;;;;;5073077;28;20542;-88
2021/10/25 10:02:03;;;;;;;22.00;20.75;;;;;;;;;;5072777;28;20435;-86
2021/10/25 10:04:30;;;;;;;21.40;20.00;;;;;;;;;;5073555;28;20652;-86
2021/10/25 10:06:59;;;;;;;23.53;21.87;;;;;;;;;;5073829;28;20792;-87
2021/10/25 10:09:28;;;;;;;21.90;20.60;;;;;;;;;;5073329;28;20456;-85
2021/10/25 10:11:57;;;;;;;21.40;20.10;;;;;;;;;;5073418;28;20769;-87
2021/10/25 10:14:24;;;;;;;21.10;19.97;;;;;;;;;;5073779;28;20915;-87
2021/10/25 10:16:52;;;;;;;21.53;20.23;;;;;;;;;;5073957;28;21002;-86
2021/10/25 10:19:24;;;;;;;21.93;20.70;;;;;;;;;;5073046;28;20455;-82
2021/10/25 10:21:52;;;;;;;23.53;21.70;;;;;;;;;;5076078;28;20441;-82
2021/10/25 10:24:25;;;;;;;21.53;20.13;;;;;;;;;;5076516;28;20490;-83
2021/10/25 10:26:57;;;;;;;23.30;21.97;;;;;;;;;;5076002;28;20416;-83
2021/10/25 10:29:25;;;;;;;23.43;21.77;;;;;;;;;;5076038;28;20448;-83
2021/10/25 10:31:59;;;;;;;23.07;21.60;;;;;;;;;;5076503;28;20527;-82
2021/10/25 10:34:27;;;;;;;22.30;21.00;;;;;;;;;;5075984;28;20429;-83
2021/10/25 10:36:55;;;;;;;22.37;20.87;;;;;;;;;;5076702;28;20443;-81
2021/10/25 10:39:27;;;;;;;22.17;20.77;;;;;;;;;;5075953;28;20407;-82
2021/10/25 10:41:56;;;;;;;23.23;21.63;;;;;;;;;;5075859;28;20800;-81
2021/10/25 10:44:27;;;;;;;22.93;21.43;;;;;;;;;;5076127;28;20202;-82
2021/10/25 10:46:57;;;;;;;21.93;20.50;;;;;;;;;;5076017;28;20470;-81
2021/10/25 10:49:28;;;;;;;23.17;21.60;;;;;;;;;;5075983;28;20442;-82
2021/10/25 10:52:12;;;;;;;23.50;21.97;;;;;;;;;;5075927;28;20502;-81
2021/10/25 10:54:43;;;;;;;24.73;22.50;;;;;;;;;;5075716;28;20418;-81
2021/10/25 10:57:24;;;;;;;22.40;20.90;;;;;;;;;;5075387;28;20808;-82
2021/10/25 10:59:58;;;;;;;23.23;21.63;;;;;;;;;;5075274;28;21084;-82
2021/10/25 11:02:25;;;;;;;22.27;20.87;;;;;;;;;;5075670;28;20781;-82
2021/10/25 11:04:53;;;;;;;22.30;20.30;;;;;;;;;;5075724;28;20961;-82
2021/10/25 11:07:20;;;;;;;22.63;21.23;;;;;;;;;;5075665;28;20459;-81
2021/10/25 11:09:48;;;;;;;22.30;20.90;;;;;;;;;;5075582;28;20867;-81
2021/10/25 11:12:21;;;;;;;22.53;21.03;;;;;;;;;;5075299;28;20420;-81
2021/10/25 11:14:48;;;;;;;21.67;20.37;;;;;;;;;;5075176;28;20475;-81
2021/10/25 11:17:20;;;;;;;21.33;20.03;;;;;;;;;;5075120;28;20438;-82
2021/10/25 11:19:49;;;;;;;22.23;20.83;;;;;;;;;;5075351;28;20852;-81
2021/10/25 11:22:26;;;;;;;21.60;20.10;;;;;;;;;;5075255;28;20463;-82
2021/10/25 11:24:55;;;;;;;23.90;22.23;;;;;;;;;;5075358;28;20422;-81
2021/10/25 11:27:31;;;;;;;23.30;21.80;;;;;;;;;;5074758;28;20413;-82
2021/10/25 11:30:09;;;;;;;21.60;19.93;;;;;;;;;;5075030;28;20861;-81
2021/10/25 11:32:38;;;;;;;21.10;19.80;;;;;;;;;;5073494;28;20921;-82
2021/10/25 11:35:06;;;;;;;22.40;21.00;;;;;;;;;;5074529;28;20949;-80
2021/10/25 11:37:34;;;;;;;21.40;20.10;;;;;;;;;;5075009;28;20420;-80
2021/10/25 11:40:04;;;;;;;22.50;21.00;;;;;;;;;;5074858;28;20869;-82
2021/10/25 11:42:33;;;;;;;21.07;19.87;;;;;;;;;;5074688;28;20420;-81
2021/10/25 11:45:01;;;;;;;21.03;19.83;;;;;;;;;;5074970;28;20423;-81
2021/10/25 11:47:30;;;;;;;21.90;20.43;;;;;;;;;;5075006;28;21003;-82
2021/10/25 11:50:01;;;;;;;21.67;20.30;;;;;;;;;;5074597;28;20428;-81
2021/10/25 11:52:34;;;;;;;22.07;20.67;;;;;;;;;;5074470;28;20473;-82
2021/10/25 11:55:02;;;;;;;21.43;20.10;;;;;;;;;;5074563;28;20440;-82
2021/10/25 11:57:29;;;;;;;21.63;20.23;;;;;;;;;;5074621;28;20839;-81
2021/10/25 11:59:57;;;;;;;22.50;20.80;;;;;;;;;;5074323;28;20456;-82
2021/10/25 12:02:25;;;;;;;22.93;21.37;;;;;;;;;;5074694;28;20411;-82
2021/10/25 12:04:53;;;;;;;23.03;21.40;;;;;;;;;;5074635;28;20453;-83
2021/10/25 12:07:22;;;;;;;22.93;21.63;;;;;;;;;;5074699;28;20459;-82
2021/10/25 12:09:55;;;;;;;21.77;20.37;;;;;;;;;;5074309;28;20437;-83
2021/10/25 12:12:23;;;;;;;21.53;20.23;;;;;;;;;;5074271;28;20419;-84
2021/10/25 12:14:56;;;;;;;22.13;20.73;;;;;;;;;;5074446;28;20541;-83
2021/10/25 12:17:27;;;;;;;23.37;21.80;;;;;;;;;;5074361;28;20420;-83
2021/10/25 12:19:55;;;;;;;23.17;21.57;;;;;;;;;;5074064;28;20411;-83
2021/10/25 12:22:23;;;;;;;21.77;20.13;;;;;;;;;;5074223;28;20438;-83
2021/10/25 12:24:52;;;;;;;21.60;20.00;;;;;;;;;;5074021;28;20409;-83
2021/10/25 12:27:21;;;;;;;22.20;20.90;;;;;;;;;;5073968;28;20451;-82
2021/10/25 12:29:59;;;;;;;21.67;20.00;;;;;;;;;;5074070;28;20420;-83
2021/10/25 12:32:26;;;;;;;21.53;20.07;;;;;;;;;;5074132;28;20442;-84
2021/10/25 12:34:55;;;;;;;21.50;19.97;;;;;;;;;;5074231;28;20412;-90
2021/10/25 12:37:25;;;;;;;21.13;19.83;;;;;;;;;;5073891;28;20496;-83
2021/10/25 12:39:53;;;;;;;21.87;20.37;;;;;;;;;;5073753;28;20424;-83
2021/10/25 12:42:20;;;;;;;22.33;20.73;;;;;;;;;;5072208;28;20486;-83
2021/10/25 12:44:52;;;;;;;21.33;19.93;;;;;;;;;;5073721;28;20416;-83
2021/10/25 12:47:21;;;;;;;24.33;22.73;;;;;;;;;;5073700;28;20428;-83
2021/10/25 12:49:49;;;;;;;22.90;21.40;;;;;;;;;;5073545;28;20797;-82
2021/10/25 12:52:16;;;;;;;21.87;20.37;;;;;;;;;;5073519;28;20788;-82
2021/10/25 12:54:46;;;;;;;22.33;20.87;;;;;;;;;;5072455;28;20435;-81
2021/10/25 12:57:17;;;;;;;21.80;20.40;;;;;;;;;;5071838;28;20466;-81
2021/10/25 12:59:44;;;;;;;21.07;19.83;;;;;;;;;;5072863;28;20998;-81
2021/10/25 13:02:23;;;;;;;21.47;20.10;;;;;;;;;;5073318;28;20438;-81
2021/10/25 13:04:50;;;;;;;21.80;20.50;;;;;;;;;;5073073;28;20420;-82
2021/10/25 13:07:20;;;;;;;21.93;20.53;;;;;;;;;;5073019;28;20408;-81
2021/10/25 13:09:52;;;;;;;22.47;20.97;;;;;;;;;;5073193;28;20503;-81
2021/10/25 13:12:21;;;;;;;22.03;20.40;;;;;;;;;;5073227;28;20420;-81
2021/10/25 13:14:49;;;;;;;21.20;19.67;;;;;;;;;;5072032;28;20448;-81
2021/10/25 13:17:18;;;;;;;21.50;19.90;;;;;;;;;;5072798;28;20517;-81
2021/10/25 13:19:45;;;;;;;21.50;20.10;;;;;;;;;;5073019;28;20440;-80
2021/10/25 13:22:13;;;;;;;20.90;19.60;;;;;;;;;;5073043;28;20424;-81
2021/10/25 13:24:40;;;;;;;21.47;20.10;;;;;;;;;;5073250;28;20767;-81
2021/10/25 13:27:09;;;;;;;21.53;20.23;;;;;;;;;;5073488;28;20908;-81
2021/10/25 13:29:37;;;;;;;22.37;20.97;;;;;;;;;;5072693;28;20744;-81
2021/10/25 13:32:05;;;;;;;20.90;19.57;;;;;;;;;;5073021;28;20912;-80
2021/10/25 13:34:34;;;;;;;21.20;19.90;;;;;;;;;;5072960;28;20513;-81
2021/10/25 13:37:01;;;;;;;23.13;21.60;;;;;;;;;;5072206;28;20488;-82
2021/10/25 13:39:29;;;;;;;21.00;19.77;;;;;;;;;;5072567;28;20444;-81
2021/10/25 13:41:56;;;;;;;22.30;21.00;;;;;;;;;;5072403;28;20912;-81
2021/10/25 13:44:25;;;;;;;22.30;21.00;;;;;;;;;;5072433;28;20437;-81
2021/10/25 13:46:52;;;;;;;23.10;21.43;;;;;;;;;;5072752;28;20459;-80
2021/10/25 13:49:20;;;;;;;23.10;21.40;;;;;;;;;;5072466;28;20433;-81
2021/10/25 13:51:47;;;;;;;22.80;21.50;;;;;;;;;;5072564;28;20465;-81
2021/10/25 13:54:14;;;;;;;23.47;21.87;;;;;;;;;;5072445;28;20434;-81
2021/10/25 13:56:42;;;;;;;22.23;20.80;;;;;;;;;;5074606;28;20495;-81
2021/10/25 13:59:09;;;;;;;22.53;21.10;;;;;;;;;;5076283;28;20988;-81
2021/10/25 14:01:38;;;;;;;21.60;20.30;;;;;;;;;;5076728;28;20411;-81
2021/10/25 14:04:08;;;;;;;22.73;21.33;;;;;;;;;;5076566;28;20654;-81
2021/10/25 14:06:35;;;;;;;22.47;20.93;;;;;;;;;;5076770;28;20445;-81
2021/10/25 14:09:03;;;;;;;22.50;21.10;;;;;;;;;;5076419;28;20409;-81
2021/10/25 14:11:36;;;;;;;24.10;22.13;;;;;;;;;;5076224;28;21010;-81
2021/10/25 14:14:11;;;;;;;24.27;22.27;;;;;;;;;;5076195;28;20491;-81
2021/10/25 14:16:49;;;;;;;22.07;20.60;;;;;;;;;;5076212;28;20494;-82
2021/10/25 14:19:16;;;;;;;23.03;21.43;;;;;;;;;;5076105;28;20943;-81
2021/10/25 14:21:44;;;;;;;22.13;20.80;;;;;;;;;;5076454;28;20433;-81
2021/10/25 14:24:11;;;;;;;22.17;20.87;;;;;;;;;;5076032;28;20904;-81
2021/10/25 14:26:39;;;;;;;21.73;20.53;;;;;;;;;;5076016;28;20445;-81
2021/10/25 14:29:07;;;;;;;21.33;20.00;;;;;;;;;;5076417;28;20412;-82
2021/10/25 14:31:34;;;;;;;21.40;19.87;;;;;;;;;;5074579;28;20441;-81
2021/10/25 14:34:03;;;;;;;22.07;20.67;;;;;;;;;;5076409;28;20504;-82
2021/10/25 14:36:32;;;;;;;21.37;20.03;;;;;;;;;;5075965;28;20498;-82
2021/10/25 14:39:09;;;;;;;20.63;19.23;;;;;;;;;;5075976;28;20452;-82
2021/10/25 14:41:49;;;;;;;21.83;20.50;;;;;;;;;;5075870;28;20886;-81
2021/10/25 14:44:26;;;;;;;21.50;20.17;;;;;;;;;;5075617;28;20932;-81
2021/10/25 14:47:03;;;;;;;21.00;19.80;;;;;;;;;;5075637;28;20452;-81
2021/10/25 14:55:06;;;;;;;22.90;21.50;;;;;;;;;;5075772;28;20548;-82
2021/10/25 14:57:33;;;;;;;21.80;20.40;;;;;;;;;;5075779;28;20565;-82
2021/10/25 15:00:00;;;;;;;21.57;20.20;;;;;;;;;;5075359;28;20455;-82
2021/10/25 15:02:28;;;;;;;21.27;19.97;;;;;;;;;;5076227;28;20438;-83
2021/10/25 15:04:59;;;;;;;24.03;22.07;;;;;;;;;;5075604;28;20537;-83
2021/10/25 15:07:27;;;;;;;21.60;20.30;;;;;;;;;;5075292;28;20442;-83
2021/10/25 15:09:55;;;;;;;22.17;20.57;;;;;;;;;;5075866;28;20457;-83
2021/10/25 15:12:23;;;;;;;20.80;19.50;;;;;;;;;;5075480;28;20424;-83
2021/10/25 15:14:50;;;;;;;23.03;21.83;;;;;;;;;;5077212;28;20441;-83
2021/10/25 15:17:18;;;;;;;21.90;20.50;;;;;;;;;;5075767;28;20485;-83
2021/10/25 15:19:46;;;;;;;22.67;21.23;;;;;;;;;;5075725;28;20798;-83
2021/10/25 15:22:16;;;;;;;22.00;20.67;;;;;;;;;;5075592;28;20453;-83
2021/10/25 15:24:47;;;;;;;23.73;21.73;;;;;;;;;;5075835;28;20445;-83
2021/10/25 15:27:15;;;;;;;23.30;21.80;;;;;;;;;;5075525;28;20432;-83
2021/10/25 15:29:43;;;;;;;23.53;22.13;;;;;;;;;;5074274;28;20424;-84
2021/10/25 15:32:11;;;;;;;21.50;20.27;;;;;;;;;;5076663;28;20430;-84
2021/10/25 15:34:41;;;;;;;22.23;20.90;;;;;;;;;;5075309;28;20771;-83
2021/10/25 15:37:09;;;;;;;22.20;20.80;;;;;;;;;;5075688;28;20466;-84
2021/10/25 15:39:38;;;;;;;22.60;21.20;;;;;;;;;;5075671;28;20409;-85
2021/10/25 15:42:06;;;;;;;22.43;21.13;;;;;;;;;;5076161;28;20419;-84
2021/10/25 15:44:34;;;;;;;21.53;20.23;;;;;;;;;;5075665;28;20438;-83
2021/10/25 15:47:02;;;;;;;21.77;20.47;;;;;;;;;;5075288;28;20442;-84